sensor_id;sensor_type;location;lat;lon;timestamp;temperature;humidity
5276;DHT22;2661;50.786;12.728;2023-01-10T00:00:39;6.00;99.90
5276;DHT22;2661;50.786;12.728;2023-01-10T00:03:06;6.00;99.90
5276;DHT22;2661;50.786;12.728;2023-01-10T00:05:34;5.90;99.90
5276;DHT22;2661;50.786;12.728;2023-01-10T00:08:01;5.90;99.90
5276;DHT22;2661;50.786;12.728;2023-01-10T00:10:29;5.80;99.90
5276;DHT22;2661;50.786;12.728;2023-01-10T00:12:55;5.80;99.90
5276;DHT22;2661;50.786;12.728;2023-01-10T00:15:40;5.80;99.90
5276;DHT22;2661;50.786;12.728;2023-01-10T00:18:07;5.70;99.90
5276;DHT22;2661;50.786;12.728;2023-01-10T00:20:34;5.60;99.90
5276;DHT22;2661;50.786;12.728;2023-01-10T00:23:01;5.60;99.90
5276;DHT22;2661;50.786;12.728;2023-01-10T00:25:29;5.50;99.90
5276;DHT22;2661;50.786;12.728;2023-01-10T00:27:55;5.60;99.90
5276;DHT22;2661;50.786;12.728;2023-01-10T00:30:41;5.50;99.90
5276;DHT22;2661;50.786;12.728;2023-01-10T00:33:07;5.50;99.90
5276;DHT22;2661;50.786;12.728;2023-01-10T00:35:34;5.50;99.90
5276;DHT22;2661;50.786;12.728;2023-01-10T00:38:01;5.50;99.90
5276;DHT22;2661;50.786;12.728;2023-01-10T00:40:31;5.50;99.90
5276;DHT22;2661;50.786;12.728;2023-01-10T00:42:58;5.60;99.90
5276;DHT22;2661;50.786;12.728;2023-01-10T00:45:44;5.60;99.90
5276;DHT22;2661;50.786;12.728;2023-01-10T00:48:11;5.60;99.90
5276;DHT22;2661;50.786;12.728;2023-01-10T00:50:38;5.60;99.90
5276;DHT22;2661;50.786;12.728;2023-01-10T00:53:05;5.60;99.90
5276;DHT22;2661;50.786;12.728;2023-01-10T00:55:36;5.60;99.90
5276;DHT22;2661;50.786;12.728;2023-01-10T00:58:03;5.60;99.90
5276;DHT22;2661;50.786;12.728;2023-01-10T01:00:30;5.60;99.90
5276;DHT22;2661;50.786;12.728;2023-01-10T01:02:56;5.60;99.90
5276;DHT22;2661;50.786;12.728;2023-01-10T01:05:23;5.60;99.90
5276;DHT22;2661;50.786;12.728;2023-01-10T01:07:50;5.50;99.90
5276;DHT22;2661;50.786;12.728;2023-01-10T01:10:17;5.60;99.90
5276;DHT22;2661;50.786;12.728;2023-01-10T01:12:57;5.60;99.90
5276;DHT22;2661;50.786;12.728;2023-01-10T01:15:24;5.70;99.90
5276;DHT22;2661;50.786;12.728;2023-01-10T01:17:51;5.60;99.90
5276;DHT22;2661;50.786;12.728;2023-01-10T01:20:18;5.60;99.90
5276;DHT22;2661;50.786;12.728;2023-01-10T01:22:46;5.50;99.90
5276;DHT22;2661;50.786;12.728;2023-01-10T01:25:13;5.60;99.90
5276;DHT22;2661;50.786;12.728;2023-01-10T01:27:39;5.60;99.90
5276;DHT22;2661;50.786;12.728;2023-01-10T01:30:06;5.60;99.90
5276;DHT22;2661;50.786;12.728;2023-01-10T01:32:33;5.60;99.90
5276;DHT22;2661;50.786;12.728;2023-01-10T01:35:00;5.60;99.90
5276;DHT22;2661;50.786;12.728;2023-01-10T01:37:27;5.60;99.90
5276;DHT22;2661;50.786;12.728;2023-01-10T01:39:53;5.60;99.90
5276;DHT22;2661;50.786;12.728;2023-01-10T01:45:01;5.60;99.90
5276;DHT22;2661;50.786;12.728;2023-01-10T01:52:55;5.60;99.90
5276;DHT22;2661;50.786;12.728;2023-01-10T01:55:22;5.60;99.90
5276;DHT22;2661;50.786;12.728;2023-01-10T01:57:50;5.60;99.90
5276;DHT22;2661;50.786;12.728;2023-01-10T02:00:17;5.60;99.90
5276;DHT22;2661;50.786;12.728;2023-01-10T02:02:45;5.60;99.90
5276;DHT22;2661;50.786;12.728;2023-01-10T02:05:27;5.60;99.90
5276;DHT22;2661;50.786;12.728;2023-01-10T03:38:25;5.60;99.90
5276;DHT22;2661;50.786;12.728;2023-01-10T03:41:06;5.60;99.90
5276;DHT22;2661;50.786;12.728;2023-01-10T03:49:06;5.70;99.90
5276;DHT22;2661;50.786;12.728;2023-01-10T03:51:34;5.70;99.90
5276;DHT22;2661;50.786;12.728;2023-01-10T03:54:02;5.60;99.90
5276;DHT22;2661;50.786;12.728;2023-01-10T03:56:29;5.60;99.90
5276;DHT22;2661;50.786;12.728;2023-01-10T03:58:56;5.60;99.90
5276;DHT22;2661;50.786;12.728;2023-01-10T04:01:22;5.60;99.90
5276;DHT22;2661;50.786;12.728;2023-01-10T04:03:49;5.60;99.90
5276;DHT22;2661;50.786;12.728;2023-01-10T04:06:16;5.60;99.90
5276;DHT22;2661;50.786;12.728;2023-01-10T04:08:43;5.60;99.90
5276;DHT22;2661;50.786;12.728;2023-01-10T04:11:09;5.60;99.90
5276;DHT22;2661;50.786;12.728;2023-01-10T04:13:36;5.60;99.90
5276;DHT22;2661;50.786;12.728;2023-01-10T04:16:03;5.60;99.90
5276;DHT22;2661;50.786;12.728;2023-01-10T04:18:29;5.60;99.90
5276;DHT22;2661;50.786;12.728;2023-01-10T04:20:56;5.50;99.90
5276;DHT22;2661;50.786;12.728;2023-01-10T04:23:22;5.50;99.90
5276;DHT22;2661;50.786;12.728;2023-01-10T04:25:49;5.50;99.90
5276;DHT22;2661;50.786;12.728;2023-01-10T04:28:15;5.60;99.90
5276;DHT22;2661;50.786;12.728;2023-01-10T04:30:42;5.60;99.90
5276;DHT22;2661;50.786;12.728;2023-01-10T04:33:09;5.50;99.90
5276;DHT22;2661;50.786;12.728;2023-01-10T04:35:37;5.50;99.90
5276;DHT22;2661;50.786;12.728;2023-01-10T04:38:03;5.60;99.90
5276;DHT22;2661;50.786;12.728;2023-01-10T04:40:30;5.60;99.90
5276;DHT22;2661;50.786;12.728;2023-01-10T04:42:56;5.60;99.90
5276;DHT22;2661;50.786;12.728;2023-01-10T04:45:23;5.60;99.90
5276;DHT22;2661;50.786;12.728;2023-01-10T04:47:50;5.70;99.90
5276;DHT22;2661;50.786;12.728;2023-01-10T04:50:17;5.60;99.90
5276;DHT22;2661;50.786;12.728;2023-01-10T04:52:43;5.60;99.90
5276;DHT22;2661;50.786;12.728;2023-01-10T04:55:10;5.70;99.90
5276;DHT22;2661;50.786;12.728;2023-01-10T04:57:37;5.60;99.90
5276;DHT22;2661;50.786;12.728;2023-01-10T05:00:03;5.60;99.90
5276;DHT22;2661;50.786;12.728;2023-01-10T05:02:30;5.60;99.90
5276;DHT22;2661;50.786;12.728;2023-01-10T05:04:57;5.60;99.90
5276;DHT22;2661;50.786;12.728;2023-01-10T05:07:23;5.60;99.90
5276;DHT22;2661;50.786;12.728;2023-01-10T05:09:50;5.60;99.90
5276;DHT22;2661;50.786;12.728;2023-01-10T05:12:17;5.70;99.90
5276;DHT22;2661;50.786;12.728;2023-01-10T05:14:43;5.70;99.90
5276;DHT22;2661;50.786;12.728;2023-01-10T05:17:10;5.70;99.90
5276;DHT22;2661;50.786;12.728;2023-01-10T05:19:36;5.70;99.90
5276;DHT22;2661;50.786;12.728;2023-01-10T05:22:03;5.70;99.90
5276;DHT22;2661;50.786;12.728;2023-01-10T05:24:29;5.70;99.90
5276;DHT22;2661;50.786;12.728;2023-01-10T05:26:56;5.70;99.90
5276;DHT22;2661;50.786;12.728;2023-01-10T05:29:22;5.70;99.90
5276;DHT22;2661;50.786;12.728;2023-01-10T05:31:49;5.70;99.90
5276;DHT22;2661;50.786;12.728;2023-01-10T05:34:16;5.70;99.90
5276;DHT22;2661;50.786;12.728;2023-01-10T05:36:43;5.80;99.90
5276;DHT22;2661;50.786;12.728;2023-01-10T05:39:09;5.70;99.90
5276;DHT22;2661;50.786;12.728;2023-01-10T05:41:36;5.70;99.90
5276;DHT22;2661;50.786;12.728;2023-01-10T05:44:02;5.80;99.90
5276;DHT22;2661;50.786;12.728;2023-01-10T05:46:29;5.80;99.90
5276;DHT22;2661;50.786;12.728;2023-01-10T05:48:56;5.70;99.90
5276;DHT22;2661;50.786;12.728;2023-01-10T05:51:22;5.80;99.90
5276;DHT22;2661;50.786;12.728;2023-01-10T05:53:49;5.80;99.90
5276;DHT22;2661;50.786;12.728;2023-01-10T05:56:16;5.70;99.90
5276;DHT22;2661;50.786;12.728;2023-01-10T05:58:42;5.70;99.90
5276;DHT22;2661;50.786;12.728;2023-01-10T06:01:12;5.70;99.90
5276;DHT22;2661;50.786;12.728;2023-01-10T06:03:39;5.60;99.90
5276;DHT22;2661;50.786;12.728;2023-01-10T06:06:05;5.60;99.90
5276;DHT22;2661;50.786;12.728;2023-01-10T06:08:32;5.60;99.90
5276;DHT22;2661;50.786;12.728;2023-01-10T06:10:59;5.60;99.90
5276;DHT22;2661;50.786;12.728;2023-01-10T06:13:25;5.70;99.90
5276;DHT22;2661;50.786;12.728;2023-01-10T06:15:52;5.60;99.90
5276;DHT22;2661;50.786;12.728;2023-01-10T06:18:18;5.60;99.90
5276;DHT22;2661;50.786;12.728;2023-01-10T06:20:45;5.60;99.90
5276;DHT22;2661;50.786;12.728;2023-01-10T06:23:12;5.50;99.90
5276;DHT22;2661;50.786;12.728;2023-01-10T06:25:38;5.50;99.90
5276;DHT22;2661;50.786;12.728;2023-01-10T06:28:09;5.50;99.90
5276;DHT22;2661;50.786;12.728;2023-01-10T06:30:36;5.50;99.90
5276;DHT22;2661;50.786;12.728;2023-01-10T06:33:03;5.50;99.90
5276;DHT22;2661;50.786;12.728;2023-01-10T06:35:30;5.50;99.90
5276;DHT22;2661;50.786;12.728;2023-01-10T06:37:57;5.60;99.90
5276;DHT22;2661;50.786;12.728;2023-01-10T06:40:24;5.50;99.90
5276;DHT22;2661;50.786;12.728;2023-01-10T06:42:51;5.50;99.90
5276;DHT22;2661;50.786;12.728;2023-01-10T06:45:17;5.40;99.90
5276;DHT22;2661;50.786;12.728;2023-01-10T06:47:44;5.40;99.90
5276;DHT22;2661;50.786;12.728;2023-01-10T06:50:11;5.50;99.90
5276;DHT22;2661;50.786;12.728;2023-01-10T06:52:38;5.50;99.90
5276;DHT22;2661;50.786;12.728;2023-01-10T06:55:04;5.40;99.90
5276;DHT22;2661;50.786;12.728;2023-01-10T06:57:32;5.50;99.90
5276;DHT22;2661;50.786;12.728;2023-01-10T07:00:04;5.50;99.90
5276;DHT22;2661;50.786;12.728;2023-01-10T07:02:31;5.50;99.90
5276;DHT22;2661;50.786;12.728;2023-01-10T07:04:58;5.60;99.90
5276;DHT22;2661;50.786;12.728;2023-01-10T07:07:24;5.60;99.90
5276;DHT22;2661;50.786;12.728;2023-01-10T07:09:51;5.60;99.90
5276;DHT22;2661;50.786;12.728;2023-01-10T07:12:17;5.60;99.90
5276;DHT22;2661;50.786;12.728;2023-01-10T07:14:44;5.60;99.90
5276;DHT22;2661;50.786;12.728;2023-01-10T07:17:10;5.60;99.90
5276;DHT22;2661;50.786;12.728;2023-01-10T07:19:37;5.60;99.90
5276;DHT22;2661;50.786;12.728;2023-01-10T07:22:04;5.60;99.90
5276;DHT22;2661;50.786;12.728;2023-01-10T07:24:30;5.60;99.90
5276;DHT22;2661;50.786;12.728;2023-01-10T07:26:57;5.60;99.90
5276;DHT22;2661;50.786;12.728;2023-01-10T07:29:23;5.60;99.90
5276;DHT22;2661;50.786;12.728;2023-01-10T07:31:50;5.60;99.90
5276;DHT22;2661;50.786;12.728;2023-01-10T07:34:16;5.70;99.90
5276;DHT22;2661;50.786;12.728;2023-01-10T07:36:43;5.70;99.90
5276;DHT22;2661;50.786;12.728;2023-01-10T07:39:09;5.70;99.90
5276;DHT22;2661;50.786;12.728;2023-01-10T07:41:36;5.60;99.90
5276;DHT22;2661;50.786;12.728;2023-01-10T07:44:03;5.60;99.90
5276;DHT22;2661;50.786;12.728;2023-01-10T07:46:29;5.60;99.90
5276;DHT22;2661;50.786;12.728;2023-01-10T07:48:56;5.70;99.90
5276;DHT22;2661;50.786;12.728;2023-01-10T07:51:23;5.70;99.90
5276;DHT22;2661;50.786;12.728;2023-01-10T07:53:49;5.60;99.90
5276;DHT22;2661;50.786;12.728;2023-01-10T07:56:16;5.70;99.90
5276;DHT22;2661;50.786;12.728;2023-01-10T07:58:42;5.70;99.90
5276;DHT22;2661;50.786;12.728;2023-01-10T08:01:11;5.80;99.90
5276;DHT22;2661;50.786;12.728;2023-01-10T08:03:38;5.70;99.90
5276;DHT22;2661;50.786;12.728;2023-01-10T08:06:06;5.70;99.90
5276;DHT22;2661;50.786;12.728;2023-01-10T08:08:33;5.80;99.90
5276;DHT22;2661;50.786;12.728;2023-01-10T08:11:00;5.90;99.90
5276;DHT22;2661;50.786;12.728;2023-01-10T08:13:28;5.80;99.90
5276;DHT22;2661;50.786;12.728;2023-01-10T08:15:55;5.80;99.90
5276;DHT22;2661;50.786;12.728;2023-01-10T08:18:22;5.80;99.90
5276;DHT22;2661;50.786;12.728;2023-01-10T08:20:49;5.80;99.90
5276;DHT22;2661;50.786;12.728;2023-01-10T08:23:16;5.80;99.90
5276;DHT22;2661;50.786;12.728;2023-01-10T08:25:43;5.80;99.90
5276;DHT22;2661;50.786;12.728;2023-01-10T08:28:10;5.90;99.90
5276;DHT22;2661;50.786;12.728;2023-01-10T08:30:37;5.80;99.90
5276;DHT22;2661;50.786;12.728;2023-01-10T08:33:05;5.80;99.90
5276;DHT22;2661;50.786;12.728;2023-01-10T08:35:35;5.80;99.90
5276;DHT22;2661;50.786;12.728;2023-01-10T08:38:02;5.80;99.90
5276;DHT22;2661;50.786;12.728;2023-01-10T08:40:29;5.80;99.90
5276;DHT22;2661;50.786;12.728;2023-01-10T08:42:56;5.70;99.90
5276;DHT22;2661;50.786;12.728;2023-01-10T08:45:23;5.80;99.90
5276;DHT22;2661;50.786;12.728;2023-01-10T08:47:49;5.80;99.90
5276;DHT22;2661;50.786;12.728;2023-01-10T08:50:16;5.90;99.90
5276;DHT22;2661;50.786;12.728;2023-01-10T08:52:42;5.90;99.90
5276;DHT22;2661;50.786;12.728;2023-01-10T08:55:09;5.90;99.90
5276;DHT22;2661;50.786;12.728;2023-01-10T08:57:36;6.00;99.90
5276;DHT22;2661;50.786;12.728;2023-01-10T09:00:03;6.10;99.90
5276;DHT22;2661;50.786;12.728;2023-01-10T09:02:30;6.10;99.90
5276;DHT22;2661;50.786;12.728;2023-01-10T09:04:56;6.10;99.90
5276;DHT22;2661;50.786;12.728;2023-01-10T09:07:23;6.10;99.90
5276;DHT22;2661;50.786;12.728;2023-01-10T09:09:49;6.20;99.90
5276;DHT22;2661;50.786;12.728;2023-01-10T09:12:16;6.10;99.90
5276;DHT22;2661;50.786;12.728;2023-01-10T09:15:01;6.10;99.90
5276;DHT22;2661;50.786;12.728;2023-01-10T09:17:28;6.10;99.90
5276;DHT22;2661;50.786;12.728;2023-01-10T09:19:54;6.20;99.90
5276;DHT22;2661;50.786;12.728;2023-01-10T09:22:21;6.30;99.90
5276;DHT22;2661;50.786;12.728;2023-01-10T09:24:49;6.20;99.90
5276;DHT22;2661;50.786;12.728;2023-01-10T09:27:15;6.20;99.90
5276;DHT22;2661;50.786;12.728;2023-01-10T09:29:42;6.30;99.90
5276;DHT22;2661;50.786;12.728;2023-01-10T09:32:08;6.30;99.90
5276;DHT22;2661;50.786;12.728;2023-01-10T09:34:35;6.30;99.90
5276;DHT22;2661;50.786;12.728;2023-01-10T09:37:01;6.40;99.90
5276;DHT22;2661;50.786;12.728;2023-01-10T09:39:28;6.40;99.90
5276;DHT22;2661;50.786;12.728;2023-01-10T09:42:01;6.40;99.90
5276;DHT22;2661;50.786;12.728;2023-01-10T09:44:46;6.40;99.90
5276;DHT22;2661;50.786;12.728;2023-01-10T09:47:28;6.40;99.90
5276;DHT22;2661;50.786;12.728;2023-01-10T09:50:09;6.40;99.90
5276;DHT22;2661;50.786;12.728;2023-01-10T09:52:37;6.40;99.90
5276;DHT22;2661;50.786;12.728;2023-01-10T09:55:14;6.30;99.90
5276;DHT22;2661;50.786;12.728;2023-01-10T09:57:42;6.40;99.90
5276;DHT22;2661;50.786;12.728;2023-01-10T10:00:13;6.40;99.90
5276;DHT22;2661;50.786;12.728;2023-01-10T10:02:42;6.50;99.90
5276;DHT22;2661;50.786;12.728;2023-01-10T10:05:12;6.40;99.90
5276;DHT22;2661;50.786;12.728;2023-01-10T10:07:42;6.40;99.90
5276;DHT22;2661;50.786;12.728;2023-01-10T10:10:15;6.50;99.90
5276;DHT22;2661;50.786;12.728;2023-01-10T10:12:42;6.50;99.90
5276;DHT22;2661;50.786;12.728;2023-01-10T10:15:14;6.60;99.90
5276;DHT22;2661;50.786;12.728;2023-01-10T10:17:49;6.60;99.90
5276;DHT22;2661;50.786;12.728;2023-01-10T10:20:30;6.60;99.90
5276;DHT22;2661;50.786;12.728;2023-01-10T10:25:33;6.70;99.90
5276;DHT22;2661;50.786;12.728;2023-01-10T10:30:55;6.70;99.90
5276;DHT22;2661;50.786;12.728;2023-01-10T10:33:42;6.80;99.90
5276;DHT22;2661;50.786;12.728;2023-01-10T10:36:11;6.90;99.90
5276;DHT22;2661;50.786;12.728;2023-01-10T10:38:40;6.80;99.90
5276;DHT22;2661;50.786;12.728;2023-01-10T10:41:14;6.80;99.90
5276;DHT22;2661;50.786;12.728;2023-01-10T10:43:42;6.90;99.90
5276;DHT22;2661;50.786;12.728;2023-01-10T10:46:14;6.90;99.90
5276;DHT22;2661;50.786;12.728;2023-01-10T10:48:47;7.00;99.90
5276;DHT22;2661;50.786;12.728;2023-01-10T10:51:22;6.90;99.90
5276;DHT22;2661;50.786;12.728;2023-01-10T10:53:50;6.90;99.90
5276;DHT22;2661;50.786;12.728;2023-01-10T10:56:18;7.00;99.90
5276;DHT22;2661;50.786;12.728;2023-01-10T10:58:47;7.00;99.90
5276;DHT22;2661;50.786;12.728;2023-01-10T11:01:15;6.90;99.90
5276;DHT22;2661;50.786;12.728;2023-01-10T11:03:52;7.00;99.90
5276;DHT22;2661;50.786;12.728;2023-01-10T11:06:20;7.00;99.90
5276;DHT22;2661;50.786;12.728;2023-01-10T11:08:49;7.00;99.90
5276;DHT22;2661;50.786;12.728;2023-01-10T11:11:21;7.00;99.90
5276;DHT22;2661;50.786;12.728;2023-01-10T11:13:52;7.00;99.90
5276;DHT22;2661;50.786;12.728;2023-01-10T11:16:26;7.00;99.90
5276;DHT22;2661;50.786;12.728;2023-01-10T11:21:38;7.00;99.90
5276;DHT22;2661;50.786;12.728;2023-01-10T11:24:17;7.10;99.90
5276;DHT22;2661;50.786;12.728;2023-01-10T11:26:45;7.00;99.90
5276;DHT22;2661;50.786;12.728;2023-01-10T11:29:16;7.00;99.90
5276;DHT22;2661;50.786;12.728;2023-01-10T11:31:44;7.00;99.90
5276;DHT22;2661;50.786;12.728;2023-01-10T11:36:51;7.10;99.90
5276;DHT22;2661;50.786;12.728;2023-01-10T11:39:18;7.10;99.90
5276;DHT22;2661;50.786;12.728;2023-01-10T11:41:44;7.20;99.90
5276;DHT22;2661;50.786;12.728;2023-01-10T11:44:20;7.30;99.90
5276;DHT22;2661;50.786;12.728;2023-01-10T11:46:47;7.20;99.90
5276;DHT22;2661;50.786;12.728;2023-01-10T11:49:16;7.20;99.90
5276;DHT22;2661;50.786;12.728;2023-01-10T11:51:46;7.30;99.90
5276;DHT22;2661;50.786;12.728;2023-01-10T11:54:20;7.40;99.90
5276;DHT22;2661;50.786;12.728;2023-01-10T11:56:58;7.40;99.90
5276;DHT22;2661;50.786;12.728;2023-01-10T11:59:25;7.40;99.90
5276;DHT22;2661;50.786;12.728;2023-01-10T12:04:38;7.30;99.90
5276;DHT22;2661;50.786;12.728;2023-01-10T12:07:07;7.30;99.90
5276;DHT22;2661;50.786;12.728;2023-01-10T12:09:41;7.40;99.90
5276;DHT22;2661;50.786;12.728;2023-01-10T12:14:35;7.30;99.90
5276;DHT22;2661;50.786;12.728;2023-01-10T12:17:02;7.40;99.90
5276;DHT22;2661;50.786;12.728;2023-01-10T12:19:35;7.50;99.90
5276;DHT22;2661;50.786;12.728;2023-01-10T12:22:02;7.50;99.90
5276;DHT22;2661;50.786;12.728;2023-01-10T12:24:32;7.50;99.90
5276;DHT22;2661;50.786;12.728;2023-01-10T12:27:03;7.50;99.90
5276;DHT22;2661;50.786;12.728;2023-01-10T12:29:33;7.40;99.90
5276;DHT22;2661;50.786;12.728;2023-01-10T12:32:00;7.50;99.90
5276;DHT22;2661;50.786;12.728;2023-01-10T12:34:34;7.50;99.90
5276;DHT22;2661;50.786;12.728;2023-01-10T12:37:11;7.50;99.90
5276;DHT22;2661;50.786;12.728;2023-01-10T12:39:50;7.50;99.90
5276;DHT22;2661;50.786;12.728;2023-01-10T12:42:26;7.40;99.90
5276;DHT22;2661;50.786;12.728;2023-01-10T12:45:15;7.40;99.90
5276;DHT22;2661;50.786;12.728;2023-01-10T12:50:19;7.30;99.90
5276;DHT22;2661;50.786;12.728;2023-01-10T12:52:54;7.30;99.90
5276;DHT22;2661;50.786;12.728;2023-01-10T12:55:23;7.30;99.90
5276;DHT22;2661;50.786;12.728;2023-01-10T12:57:59;7.20;99.90
5276;DHT22;2661;50.786;12.728;2023-01-10T13:00:36;7.20;99.90
5276;DHT22;2661;50.786;12.728;2023-01-10T13:03:15;7.20;99.90
5276;DHT22;2661;50.786;12.728;2023-01-10T13:05:44;7.20;99.90
5276;DHT22;2661;50.786;12.728;2023-01-10T13:08:15;7.10;99.90
5276;DHT22;2661;50.786;12.728;2023-01-10T13:10:43;7.00;99.90
5276;DHT22;2661;50.786;12.728;2023-01-10T13:16:25;7.00;99.90
5276;DHT22;2661;50.786;12.728;2023-01-10T13:18:29;7.00;99.90
5276;DHT22;2661;50.786;12.728;2023-01-10T13:21:06;7.00;99.90
5276;DHT22;2661;50.786;12.728;2023-01-10T13:23:36;7.10;99.90
5276;DHT22;2661;50.786;12.728;2023-01-10T13:26:05;7.20;99.90
5276;DHT22;2661;50.786;12.728;2023-01-10T13:28:35;7.20;99.90
5276;DHT22;2661;50.786;12.728;2023-01-10T13:31:06;7.20;99.90
5276;DHT22;2661;50.786;12.728;2023-01-10T13:33:36;7.10;99.90
5276;DHT22;2661;50.786;12.728;2023-01-10T13:36:07;7.20;99.90
5276;DHT22;2661;50.786;12.728;2023-01-10T13:38:36;7.20;99.90
5276;DHT22;2661;50.786;12.728;2023-01-10T13:41:05;7.10;99.90
5276;DHT22;2661;50.786;12.728;2023-01-10T13:51:17;7.10;99.90
5276;DHT22;2661;50.786;12.728;2023-01-10T13:56:30;7.00;99.90
5276;DHT22;2661;50.786;12.728;2023-01-10T13:58:57;7.00;99.90
5276;DHT22;2661;50.786;12.728;2023-01-10T14:01:49;7.00;99.90
5276;DHT22;2661;50.786;12.728;2023-01-10T14:04:36;7.00;99.90
5276;DHT22;2661;50.786;12.728;2023-01-10T14:07:26;7.00;99.90
5276;DHT22;2661;50.786;12.728;2023-01-10T14:09:50;7.10;99.90
5276;DHT22;2661;50.786;12.728;2023-01-10T14:12:22;7.10;99.90
5276;DHT22;2661;50.786;12.728;2023-01-10T14:17:52;7.00;99.90
5276;DHT22;2661;50.786;12.728;2023-01-10T14:20:21;7.00;99.90
5276;DHT22;2661;50.786;12.728;2023-01-10T14:22:58;7.00;99.90
5276;DHT22;2661;50.786;12.728;2023-01-10T14:25:26;6.90;99.90
5276;DHT22;2661;50.786;12.728;2023-01-10T14:27:54;6.90;99.90
5276;DHT22;2661;50.786;12.728;2023-01-10T14:33:03;6.90;99.90
5276;DHT22;2661;50.786;12.728;2023-01-10T14:35:33;6.90;99.90
5276;DHT22;2661;50.786;12.728;2023-01-10T14:38:01;6.80;99.90
5276;DHT22;2661;50.786;12.728;2023-01-10T14:40:36;6.80;99.90
5276;DHT22;2661;50.786;12.728;2023-01-10T14:43:08;6.80;99.90
5276;DHT22;2661;50.786;12.728;2023-01-10T14:48:16;6.70;99.90
5276;DHT22;2661;50.786;12.728;2023-01-10T14:50:47;6.70;99.90
5276;DHT22;2661;50.786;12.728;2023-01-10T14:53:24;6.60;99.90
5276;DHT22;2661;50.786;12.728;2023-01-10T14:55:50;6.60;99.90
5276;DHT22;2661;50.786;12.728;2023-01-10T14:58:17;6.60;99.90
5276;DHT22;2661;50.786;12.728;2023-01-10T15:00:43;6.60;99.90
5276;DHT22;2661;50.786;12.728;2023-01-10T15:03:18;6.70;99.90
5276;DHT22;2661;50.786;12.728;2023-01-10T15:05:47;6.70;99.90
5276;DHT22;2661;50.786;12.728;2023-01-10T15:08:18;6.70;99.90
5276;DHT22;2661;50.786;12.728;2023-01-10T15:10:45;6.70;99.90
5276;DHT22;2661;50.786;12.728;2023-01-10T15:13:14;6.70;99.90
5276;DHT22;2661;50.786;12.728;2023-01-10T15:15:42;6.70;99.90
5276;DHT22;2661;50.786;12.728;2023-01-10T15:18:33;6.60;99.90
5276;DHT22;2661;50.786;12.728;2023-01-10T15:20:59;6.50;99.90
5276;DHT22;2661;50.786;12.728;2023-01-10T15:23:33;6.50;99.90
5276;DHT22;2661;50.786;12.728;2023-01-10T15:26:01;6.50;99.90
5276;DHT22;2661;50.786;12.728;2023-01-10T15:28:29;6.60;99.90
5276;DHT22;2661;50.786;12.728;2023-01-10T15:30:56;6.50;99.90
5276;DHT22;2661;50.786;12.728;2023-01-10T15:33:25;6.50;99.90
5276;DHT22;2661;50.786;12.728;2023-01-10T15:35:53;6.50;99.90
5276;DHT22;2661;50.786;12.728;2023-01-10T15:38:20;6.40;99.90
5276;DHT22;2661;50.786;12.728;2023-01-10T15:40:54;6.40;99.90
5276;DHT22;2661;50.786;12.728;2023-01-10T15:43:28;6.40;99.90
5276;DHT22;2661;50.786;12.728;2023-01-10T15:45:56;6.30;99.90
5276;DHT22;2661;50.786;12.728;2023-01-10T15:48:23;6.30;99.90
5276;DHT22;2661;50.786;12.728;2023-01-10T15:53:48;6.10;99.90
5276;DHT22;2661;50.786;12.728;2023-01-10T15:56:15;6.10;99.90
5276;DHT22;2661;50.786;12.728;2023-01-10T15:58:42;6.10;99.90
5276;DHT22;2661;50.786;12.728;2023-01-10T16:01:11;6.00;99.90
5276;DHT22;2661;50.786;12.728;2023-01-10T16:04:01;5.90;99.90
5276;DHT22;2661;50.786;12.728;2023-01-10T16:08:53;5.90;99.90
5276;DHT22;2661;50.786;12.728;2023-01-10T16:11:45;5.90;99.90
5276;DHT22;2661;50.786;12.728;2023-01-10T16:14:26;6.00;99.90
5276;DHT22;2661;50.786;12.728;2023-01-10T16:16:53;5.90;99.90
5276;DHT22;2661;50.786;12.728;2023-01-10T16:19:19;6.00;99.90
5276;DHT22;2661;50.786;12.728;2023-01-10T16:21:48;6.00;99.90
5276;DHT22;2661;50.786;12.728;2023-01-10T16:24:19;6.00;99.90
5276;DHT22;2661;50.786;12.728;2023-01-10T16:26:49;6.00;99.90
5276;DHT22;2661;50.786;12.728;2023-01-10T16:29:17;6.00;99.90
5276;DHT22;2661;50.786;12.728;2023-01-10T16:31:48;5.90;99.90
5276;DHT22;2661;50.786;12.728;2023-01-10T16:34:15;5.90;99.90
5276;DHT22;2661;50.786;12.728;2023-01-10T16:36:41;5.80;99.90
5276;DHT22;2661;50.786;12.728;2023-01-10T16:39:15;5.80;99.90
5276;DHT22;2661;50.786;12.728;2023-01-10T16:41:42;5.80;99.90
5276;DHT22;2661;50.786;12.728;2023-01-10T16:44:28;5.80;99.90
5276;DHT22;2661;50.786;12.728;2023-01-10T16:46:55;5.80;99.90
5276;DHT22;2661;50.786;12.728;2023-01-10T16:49:21;5.80;99.90
5276;DHT22;2661;50.786;12.728;2023-01-10T16:51:48;5.70;99.90
5276;DHT22;2661;50.786;12.728;2023-01-10T16:54:15;5.60;99.90
5276;DHT22;2661;50.786;12.728;2023-01-10T16:56:42;5.40;99.90
5276;DHT22;2661;50.786;12.728;2023-01-10T16:59:10;5.40;99.90
5276;DHT22;2661;50.786;12.728;2023-01-10T17:01:39;5.30;99.90
5276;DHT22;2661;50.786;12.728;2023-01-10T17:04:07;5.20;99.90
5276;DHT22;2661;50.786;12.728;2023-01-10T17:06:34;5.10;99.90
5276;DHT22;2661;50.786;12.728;2023-01-10T17:09:01;5.00;99.90
5276;DHT22;2661;50.786;12.728;2023-01-10T17:11:28;4.90;99.90
5276;DHT22;2661;50.786;12.728;2023-01-10T17:13:56;4.80;99.90
5276;DHT22;2661;50.786;12.728;2023-01-10T17:16:23;4.80;99.90
5276;DHT22;2661;50.786;12.728;2023-01-10T17:18:49;4.70;99.90
5276;DHT22;2661;50.786;12.728;2023-01-10T17:21:17;4.60;99.90
5276;DHT22;2661;50.786;12.728;2023-01-10T17:23:44;4.60;99.90
5276;DHT22;2661;50.786;12.728;2023-01-10T17:26:11;4.60;99.90
5276;DHT22;2661;50.786;12.728;2023-01-10T17:28:38;4.70;99.90
5276;DHT22;2661;50.786;12.728;2023-01-10T17:31:06;4.70;99.90
5276;DHT22;2661;50.786;12.728;2023-01-10T17:33:33;4.70;99.90
5276;DHT22;2661;50.786;12.728;2023-01-10T17:36:00;4.70;99.90
5276;DHT22;2661;50.786;12.728;2023-01-10T17:38:27;4.70;99.90
5276;DHT22;2661;50.786;12.728;2023-01-10T17:40:56;4.70;99.90
5276;DHT22;2661;50.786;12.728;2023-01-10T17:43:23;4.60;99.90
5276;DHT22;2661;50.786;12.728;2023-01-10T17:45:49;4.60;99.90
5276;DHT22;2661;50.786;12.728;2023-01-10T17:48:17;4.50;99.90
5276;DHT22;2661;50.786;12.728;2023-01-10T17:50:47;4.50;99.90
5276;DHT22;2661;50.786;12.728;2023-01-10T17:53:15;4.50;99.90
5276;DHT22;2661;50.786;12.728;2023-01-10T17:55:46;4.40;99.90
5276;DHT22;2661;50.786;12.728;2023-01-10T17:58:13;4.40;99.90
5276;DHT22;2661;50.786;12.728;2023-01-10T18:00:40;4.40;99.90
5276;DHT22;2661;50.786;12.728;2023-01-10T18:03:07;4.40;99.90
5276;DHT22;2661;50.786;12.728;2023-01-10T18:05:34;4.50;99.90
5276;DHT22;2661;50.786;12.728;2023-01-10T18:08:01;4.50;99.90
5276;DHT22;2661;50.786;12.728;2023-01-10T18:10:28;4.60;99.90
5276;DHT22;2661;50.786;12.728;2023-01-10T18:12:54;4.50;99.90
5276;DHT22;2661;50.786;12.728;2023-01-10T18:15:23;4.50;99.90
5276;DHT22;2661;50.786;12.728;2023-01-10T18:17:50;4.60;99.90
5276;DHT22;2661;50.786;12.728;2023-01-10T18:20:17;4.60;99.90
5276;DHT22;2661;50.786;12.728;2023-01-10T18:22:44;4.50;99.90
5276;DHT22;2661;50.786;12.728;2023-01-10T18:25:30;4.50;99.90
5276;DHT22;2661;50.786;12.728;2023-01-10T18:27:57;4.60;99.90
5276;DHT22;2661;50.786;12.728;2023-01-10T18:30:25;4.50;99.90
5276;DHT22;2661;50.786;12.728;2023-01-10T18:32:52;4.50;99.90
5276;DHT22;2661;50.786;12.728;2023-01-10T18:35:19;4.50;99.90
5276;DHT22;2661;50.786;12.728;2023-01-10T18:37:46;4.40;99.90
5276;DHT22;2661;50.786;12.728;2023-01-10T18:40:12;4.40;99.90
5276;DHT22;2661;50.786;12.728;2023-01-10T18:42:39;4.40;99.90